sensor_id;sensor_type;location;lat;lon;timestamp;temperature;humidity
20231;DHT22;10274;49.022;9.338;2023-08-07T00:01:33;12.40;99.90
20231;DHT22;10274;49.022;9.338;2023-08-07T00:04:00;12.30;99.90
20231;DHT22;10274;49.022;9.338;2023-08-07T00:06:27;12.30;99.90
20231;DHT22;10274;49.022;9.338;2023-08-07T00:08:53;12.30;99.90
20231;DHT22;10274;49.022;9.338;2023-08-07T00:11:22;12.40;99.90
20231;DHT22;10274;49.022;9.338;2023-08-07T00:13:48;12.30;99.90
20231;DHT22;10274;49.022;9.338;2023-08-07T00:16:15;12.80;99.90
20231;DHT22;10274;49.022;9.338;2023-08-07T00:18:42;12.40;99.90
20231;DHT22;10274;49.022;9.338;2023-08-07T00:21:09;12.40;99.90
20231;DHT22;10274;49.022;9.338;2023-08-07T00:23:36;12.40;99.90
20231;DHT22;10274;49.022;9.338;2023-08-07T00:26:02;12.40;99.90
20231;DHT22;10274;49.022;9.338;2023-08-07T00:28:30;12.40;99.90
20231;DHT22;10274;49.022;9.338;2023-08-07T00:30:57;12.40;99.90
20231;DHT22;10274;49.022;9.338;2023-08-07T00:33:24;12.40;99.90
20231;DHT22;10274;49.022;9.338;2023-08-07T00:35:50;12.40;99.90
20231;DHT22;10274;49.022;9.338;2023-08-07T00:38:17;12.40;99.90
20231;DHT22;10274;49.022;9.338;2023-08-07T00:40:44;12.40;99.90
20231;DHT22;10274;49.022;9.338;2023-08-07T00:43:10;12.40;99.90
20231;DHT22;10274;49.022;9.338;2023-08-07T00:45:42;12.50;99.90
20231;DHT22;10274;49.022;9.338;2023-08-07T00:48:09;12.40;99.90
20231;DHT22;10274;49.022;9.338;2023-08-07T00:50:36;12.40;99.90
20231;DHT22;10274;49.022;9.338;2023-08-07T00:53:03;12.40;99.90
20231;DHT22;10274;49.022;9.338;2023-08-07T00:55:31;12.40;99.90
20231;DHT22;10274;49.022;9.338;2023-08-07T00:57:58;12.40;99.90
20231;DHT22;10274;49.022;9.338;2023-08-07T01:00:26;12.40;99.90
20231;DHT22;10274;49.022;9.338;2023-08-07T01:02:56;12.40;99.90
20231;DHT22;10274;49.022;9.338;2023-08-07T01:05:23;12.40;99.90
20231;DHT22;10274;49.022;9.338;2023-08-07T01:07:50;12.40;99.90
20231;DHT22;10274;49.022;9.338;2023-08-07T01:10:25;12.50;99.90
20231;DHT22;10274;49.022;9.338;2023-08-07T01:12:57;12.40;99.90
20231;DHT22;10274;49.022;9.338;2023-08-07T01:15:30;12.40;99.90
20231;DHT22;10274;49.022;9.338;2023-08-07T01:18:01;12.50;99.90
20231;DHT22;10274;49.022;9.338;2023-08-07T01:22:58;12.40;99.90
20231;DHT22;10274;49.022;9.338;2023-08-07T01:25:24;12.40;99.90
20231;DHT22;10274;49.022;9.338;2023-08-07T01:27:55;12.50;99.90
20231;DHT22;10274;49.022;9.338;2023-08-07T01:30:32;12.40;99.90
20231;DHT22;10274;49.022;9.338;2023-08-07T01:33:07;12.40;99.90
20231;DHT22;10274;49.022;9.338;2023-08-07T01:35:40;12.50;99.90
20231;DHT22;10274;49.022;9.338;2023-08-07T01:38:11;12.40;99.80
20231;DHT22;10274;49.022;9.338;2023-08-07T01:40:39;12.40;99.90
20231;DHT22;10274;49.022;9.338;2023-08-07T01:43:06;12.40;91.70
20231;DHT22;10274;49.022;9.338;2023-08-07T01:45:33;12.40;99.90
20231;DHT22;10274;49.022;9.338;2023-08-07T01:47:59;12.40;86.50
20231;DHT22;10274;49.022;9.338;2023-08-07T01:50:26;12.50;67.10
20231;DHT22;10274;49.022;9.338;2023-08-07T01:52:53;12.40;39.60
20231;DHT22;10274;49.022;9.338;2023-08-07T01:55:22;12.40;47.40
20231;DHT22;10274;49.022;9.338;2023-08-07T01:57:49;12.40;80.00
20231;DHT22;10274;49.022;9.338;2023-08-07T02:00:16;12.40;57.20
20231;DHT22;10274;49.022;9.338;2023-08-07T02:02:42;12.40;90.80
20231;DHT22;10274;49.022;9.338;2023-08-07T02:05:10;12.40;95.90
20231;DHT22;10274;49.022;9.338;2023-08-07T02:07:37;12.40;98.40
20231;DHT22;10274;49.022;9.338;2023-08-07T02:10:04;12.40;96.10
20231;DHT22;10274;49.022;9.338;2023-08-07T02:12:32;12.40;98.30
20231;DHT22;10274;49.022;9.338;2023-08-07T02:14:59;12.40;99.90
20231;DHT22;10274;49.022;9.338;2023-08-07T02:17:26;12.30;99.90
20231;DHT22;10274;49.022;9.338;2023-08-07T02:19:53;12.30;99.90
20231;DHT22;10274;49.022;9.338;2023-08-07T02:22:20;12.30;99.90
20231;DHT22;10274;49.022;9.338;2023-08-07T02:24:47;12.30;99.90
20231;DHT22;10274;49.022;9.338;2023-08-07T02:27:13;12.30;90.80
20231;DHT22;10274;49.022;9.338;2023-08-07T02:29:42;12.30;99.90
20231;DHT22;10274;49.022;9.338;2023-08-07T02:32:08;12.30;99.90
20231;DHT22;10274;49.022;9.338;2023-08-07T02:34:35;12.30;90.40
20231;DHT22;10274;49.022;9.338;2023-08-07T02:37:02;12.30;75.60
20231;DHT22;10274;49.022;9.338;2023-08-07T02:39:28;12.30;66.10
20231;DHT22;10274;49.022;9.338;2023-08-07T02:41:55;12.40;22.50
20231;DHT22;10274;49.022;9.338;2023-08-07T02:44:22;12.30;41.00
20231;DHT22;10274;49.022;9.338;2023-08-07T02:46:50;12.40;39.90
20231;DHT22;10274;49.022;9.338;2023-08-07T02:49:16;12.40;26.90
20231;DHT22;10274;49.022;9.338;2023-08-07T02:51:43;12.30;63.00
20231;DHT22;10274;49.022;9.338;2023-08-07T02:54:09;12.30;44.20
20231;DHT22;10274;49.022;9.338;2023-08-07T02:56:36;12.30;6.90
20231;DHT22;10274;49.022;9.338;2023-08-07T02:59:03;12.30;35.10
20231;DHT22;10274;49.022;9.338;2023-08-07T03:01:30;12.30;26.50
20231;DHT22;10274;49.022;9.338;2023-08-07T03:03:58;12.30;24.40
20231;DHT22;10274;49.022;9.338;2023-08-07T03:06:25;12.30;37.00
20231;DHT22;10274;49.022;9.338;2023-08-07T03:08:52;12.30;1.00
20231;DHT22;10274;49.022;9.338;2023-08-07T03:11:18;12.30;1.00
20231;DHT22;10274;49.022;9.338;2023-08-07T03:13:45;12.30;1.00
20231;DHT22;10274;49.022;9.338;2023-08-07T03:16:14;12.30;1.00
20231;DHT22;10274;49.022;9.338;2023-08-07T03:18:41;12.30;1.00
20231;DHT22;10274;49.022;9.338;2023-08-07T03:21:09;12.30;13.90
20231;DHT22;10274;49.022;9.338;2023-08-07T03:23:35;12.20;28.60
20231;DHT22;10274;49.022;9.338;2023-08-07T03:26:03;12.20;22.20
20231;DHT22;10274;49.022;9.338;2023-08-07T03:28:30;12.30;1.00
20231;DHT22;10274;49.022;9.338;2023-08-07T03:30:57;12.20;1.00
20231;DHT22;10274;49.022;9.338;2023-08-07T03:33:24;12.20;1.00
20231;DHT22;10274;49.022;9.338;2023-08-07T03:35:50;12.30;1.00
20231;DHT22;10274;49.022;9.338;2023-08-07T03:38:19;12.30;1.00
20231;DHT22;10274;49.022;9.338;2023-08-07T03:40:45;12.30;1.00
20231;DHT22;10274;49.022;9.338;2023-08-07T03:43:12;12.20;1.00
20231;DHT22;10274;49.022;9.338;2023-08-07T03:45:39;12.20;1.00
20231;DHT22;10274;49.022;9.338;2023-08-07T03:48:06;12.30;1.00
20231;DHT22;10274;49.022;9.338;2023-08-07T03:50:34;12.20;1.00
20231;DHT22;10274;49.022;9.338;2023-08-07T03:53:02;12.20;5.00
20231;DHT22;10274;49.022;9.338;2023-08-07T03:55:31;12.20;1.00
20231;DHT22;10274;49.022;9.338;2023-08-07T03:57:57;12.20;5.00
20231;DHT22;10274;49.022;9.338;2023-08-07T04:00:24;12.20;1.00
20231;DHT22;10274;49.022;9.338;2023-08-07T04:02:51;12.20;1.00
20231;DHT22;10274;49.022;9.338;2023-08-07T04:05:17;12.20;1.00
20231;DHT22;10274;49.022;9.338;2023-08-07T04:07:44;12.30;1.00
20231;DHT22;10274;49.022;9.338;2023-08-07T04:10:10;12.20;1.00
20231;DHT22;10274;49.022;9.338;2023-08-07T04:12:39;12.20;1.00
20231;DHT22;10274;49.022;9.338;2023-08-07T04:15:06;12.30;1.00
20231;DHT22;10274;49.022;9.338;2023-08-07T04:17:34;12.20;1.00
20231;DHT22;10274;49.022;9.338;2023-08-07T04:20:01;12.20;1.00
20231;DHT22;10274;49.022;9.338;2023-08-07T04:22:29;12.30;1.00
20231;DHT22;10274;49.022;9.338;2023-08-07T04:24:55;12.20;8.10
20231;DHT22;10274;49.022;9.338;2023-08-07T04:27:22;12.20;22.90
20231;DHT22;10274;49.022;9.338;2023-08-07T04:29:50;12.20;1.00
20231;DHT22;10274;49.022;9.338;2023-08-07T04:32:17;12.20;32.30
20231;DHT22;10274;49.022;9.338;2023-08-07T04:34:44;12.20;38.30
20231;DHT22;10274;49.022;9.338;2023-08-07T04:37:10;12.20;45.30
20231;DHT22;10274;49.022;9.338;2023-08-07T04:39:37;12.20;47.20
20231;DHT22;10274;49.022;9.338;2023-08-07T04:42:04;12.20;39.80
20231;DHT22;10274;49.022;9.338;2023-08-07T04:44:31;12.20;41.10
20231;DHT22;10274;49.022;9.338;2023-08-07T04:47:00;12.20;51.80
20231;DHT22;10274;49.022;9.338;2023-08-07T04:49:26;12.20;70.90
20231;DHT22;10274;49.022;9.338;2023-08-07T04:51:53;12.20;42.80
20231;DHT22;10274;49.022;9.338;2023-08-07T04:54:20;12.20;21.50
20231;DHT22;10274;49.022;9.338;2023-08-07T04:56:46;12.20;13.20
20231;DHT22;10274;49.022;9.338;2023-08-07T04:59:13;12.20;44.50
20231;DHT22;10274;49.022;9.338;2023-08-07T05:01:40;12.20;55.80
20231;DHT22;10274;49.022;9.338;2023-08-07T05:04:08;12.20;43.10
20231;DHT22;10274;49.022;9.338;2023-08-07T05:06:35;12.20;4.20
20231;DHT22;10274;49.022;9.338;2023-08-07T05:09:02;12.20;1.00
20231;DHT22;10274;49.022;9.338;2023-08-07T05:11:29;12.30;12.60
20231;DHT22;10274;49.022;9.338;2023-08-07T05:13:56;12.30;1.00
20231;DHT22;10274;49.022;9.338;2023-08-07T05:16:23;12.30;1.00
20231;DHT22;10274;49.022;9.338;2023-08-07T05:18:49;12.30;1.00
20231;DHT22;10274;49.022;9.338;2023-08-07T05:21:17;12.30;1.00
20231;DHT22;10274;49.022;9.338;2023-08-07T05:23:44;12.40;1.00
20231;DHT22;10274;49.022;9.338;2023-08-07T05:26:11;12.40;1.00
20231;DHT22;10274;49.022;9.338;2023-08-07T05:31:05;12.30;24.80
20231;DHT22;10274;49.022;9.338;2023-08-07T05:33:32;12.30;36.90
20231;DHT22;10274;49.022;9.338;2023-08-07T05:35:59;12.30;90.80
20231;DHT22;10274;49.022;9.338;2023-08-07T05:38:27;12.20;57.00
20231;DHT22;10274;49.022;9.338;2023-08-07T05:40:53;12.30;22.20
20231;DHT22;10274;49.022;9.338;2023-08-07T05:43:20;12.30;37.20
20231;DHT22;10274;49.022;9.338;2023-08-07T05:45:47;12.30;8.00
20231;DHT22;10274;49.022;9.338;2023-08-07T05:48:14;12.30;1.00
20231;DHT22;10274;49.022;9.338;2023-08-07T05:50:41;12.40;1.00
20231;DHT22;10274;49.022;9.338;2023-08-07T05:53:08;12.40;1.00
20231;DHT22;10274;49.022;9.338;2023-08-07T05:55:39;12.40;1.00
20231;DHT22;10274;49.022;9.338;2023-08-07T05:58:06;12.40;13.00
20231;DHT22;10274;49.022;9.338;2023-08-07T06:00:32;12.40;1.00
20231;DHT22;10274;49.022;9.338;2023-08-07T06:03:00;12.40;1.00
20231;DHT22;10274;49.022;9.338;2023-08-07T06:05:27;12.40;1.00
20231;DHT22;10274;49.022;9.338;2023-08-07T06:07:54;12.50;1.00
20231;DHT22;10274;49.022;9.338;2023-08-07T06:10:20;12.50;1.00
20231;DHT22;10274;49.022;9.338;2023-08-07T06:12:48;12.60;1.00
20231;DHT22;10274;49.022;9.338;2023-08-07T06:15:15;12.60;1.00
20231;DHT22;10274;49.022;9.338;2023-08-07T06:17:42;12.60;1.00
20231;DHT22;10274;49.022;9.338;2023-08-07T06:20:09;12.60;1.00
20231;DHT22;10274;49.022;9.338;2023-08-07T06:22:37;12.70;1.00
20231;DHT22;10274;49.022;9.338;2023-08-07T06:25:04;12.70;1.00
20231;DHT22;10274;49.022;9.338;2023-08-07T06:27:32;12.70;1.00
20231;DHT22;10274;49.022;9.338;2023-08-07T06:30:00;12.80;1.00
20231;DHT22;10274;49.022;9.338;2023-08-07T06:32:27;12.80;1.00
20231;DHT22;10274;49.022;9.338;2023-08-07T06:34:54;12.80;1.00
20231;DHT22;10274;49.022;9.338;2023-08-07T06:37:20;12.90;1.00
20231;DHT22;10274;49.022;9.338;2023-08-07T06:39:47;13.00;1.00
20231;DHT22;10274;49.022;9.338;2023-08-07T06:42:14;13.00;1.00
20231;DHT22;10274;49.022;9.338;2023-08-07T06:44:40;13.00;1.00
20231;DHT22;10274;49.022;9.338;2023-08-07T06:47:09;13.10;1.00
20231;DHT22;10274;49.022;9.338;2023-08-07T06:49:35;13.10;1.00
20231;DHT22;10274;49.022;9.338;2023-08-07T06:52:03;13.20;1.00
20231;DHT22;10274;49.022;9.338;2023-08-07T06:54:30;13.20;1.00
20231;DHT22;10274;49.022;9.338;2023-08-07T06:56:56;13.30;1.00
20231;DHT22;10274;49.022;9.338;2023-08-07T06:59:23;13.40;1.00
20231;DHT22;10274;49.022;9.338;2023-08-07T07:01:50;13.50;1.00
20231;DHT22;10274;49.022;9.338;2023-08-07T07:04:19;13.70;1.00
20231;DHT22;10274;49.022;9.338;2023-08-07T07:06:45;13.60;99.90
20231;DHT22;10274;49.022;9.338;2023-08-07T07:09:12;13.50;1.00
20231;DHT22;10274;49.022;9.338;2023-08-07T07:11:42;13.50;99.90
20231;DHT22;10274;49.022;9.338;2023-08-07T07:14:09;13.50;99.90
20231;DHT22;10274;49.022;9.338;2023-08-07T07:16:36;13.50;1.00
20231;DHT22;10274;49.022;9.338;2023-08-07T07:19:03;13.40;1.00
20231;DHT22;10274;49.022;9.338;2023-08-07T07:21:33;13.40;99.90
20231;DHT22;10274;49.022;9.338;2023-08-07T07:23:59;13.40;1.00
20231;DHT22;10274;49.022;9.338;2023-08-07T07:26:26;13.40;1.00
20231;DHT22;10274;49.022;9.338;2023-08-07T07:28:53;13.40;99.90
20231;DHT22;10274;49.022;9.338;2023-08-07T07:31:20;13.40;1.00
20231;DHT22;10274;49.022;9.338;2023-08-07T07:33:47;13.40;1.00
20231;DHT22;10274;49.022;9.338;2023-08-07T07:36:15;13.50;70.00
20231;DHT22;10274;49.022;9.338;2023-08-07T07:38:45;13.50;99.90
20231;DHT22;10274;49.022;9.338;2023-08-07T07:41:12;13.50;1.00
20231;DHT22;10274;49.022;9.338;2023-08-07T07:43:39;13.50;1.00
20231;DHT22;10274;49.022;9.338;2023-08-07T07:46:06;13.50;1.00
20231;DHT22;10274;49.022;9.338;2023-08-07T07:48:32;13.50;1.00
20231;DHT22;10274;49.022;9.338;2023-08-07T07:50:59;13.50;1.00
20231;DHT22;10274;49.022;9.338;2023-08-07T07:53:26;13.50;1.00
20231;DHT22;10274;49.022;9.338;2023-08-07T07:55:54;13.50;99.90
20231;DHT22;10274;49.022;9.338;2023-08-07T07:58:21;13.50;1.00
20231;DHT22;10274;49.022;9.338;2023-08-07T08:00:48;13.50;1.00
20231;DHT22;10274;49.022;9.338;2023-08-07T08:03:17;13.50;1.00
20231;DHT22;10274;49.022;9.338;2023-08-07T08:05:46;13.50;99.90
20231;DHT22;10274;49.022;9.338;2023-08-07T08:08:12;13.60;99.90
20231;DHT22;10274;49.022;9.338;2023-08-07T08:10:39;13.70;1.00
20231;DHT22;10274;49.022;9.338;2023-08-07T08:13:10;13.70;99.90
20231;DHT22;10274;49.022;9.338;2023-08-07T08:15:36;13.80;1.00
20231;DHT22;10274;49.022;9.338;2023-08-07T08:18:03;13.80;99.90
20231;DHT22;10274;49.022;9.338;2023-08-07T08:20:30;13.90;99.90
20231;DHT22;10274;49.022;9.338;2023-08-07T08:22:58;13.90;1.00
20231;DHT22;10274;49.022;9.338;2023-08-07T08:25:25;13.90;99.90
20231;DHT22;10274;49.022;9.338;2023-08-07T08:27:52;14.00;99.90
20231;DHT22;10274;49.022;9.338;2023-08-07T08:30:20;14.00;1.00
20231;DHT22;10274;49.022;9.338;2023-08-07T08:32:48;14.10;1.00
20231;DHT22;10274;49.022;9.338;2023-08-07T08:35:14;14.10;1.00
20231;DHT22;10274;49.022;9.338;2023-08-07T08:37:41;14.20;47.40
20231;DHT22;10274;49.022;9.338;2023-08-07T08:40:09;14.20;1.00
20231;DHT22;10274;49.022;9.338;2023-08-07T08:42:39;14.10;99.90
20231;DHT22;10274;49.022;9.338;2023-08-07T08:45:09;14.10;1.00
20231;DHT22;10274;49.022;9.338;2023-08-07T08:47:38;14.10;1.00
20231;DHT22;10274;49.022;9.338;2023-08-07T08:50:08;14.20;99.90
20231;DHT22;10274;49.022;9.338;2023-08-07T08:52:37;14.30;1.00
20231;DHT22;10274;49.022;9.338;2023-08-07T08:55:04;14.30;99.90
20231;DHT22;10274;49.022;9.338;2023-08-07T08:57:33;14.40;1.00
20231;DHT22;10274;49.022;9.338;2023-08-07T09:00:00;14.50;1.00
20231;DHT22;10274;49.022;9.338;2023-08-07T09:02:30;14.60;1.00
20231;DHT22;10274;49.022;9.338;2023-08-07T09:04:59;14.70;1.00
20231;DHT22;10274;49.022;9.338;2023-08-07T09:07:27;14.70;1.00
20231;DHT22;10274;49.022;9.338;2023-08-07T09:09:56;14.60;1.00
20231;DHT22;10274;49.022;9.338;2023-08-07T09:12:26;14.60;1.00
20231;DHT22;10274;49.022;9.338;2023-08-07T09:14:57;14.50;1.00
20231;DHT22;10274;49.022;9.338;2023-08-07T09:17:26;14.60;1.00
20231;DHT22;10274;49.022;9.338;2023-08-07T09:19:54;14.60;1.00
20231;DHT22;10274;49.022;9.338;2023-08-07T09:22:22;14.70;1.00
20231;DHT22;10274;49.022;9.338;2023-08-07T09:24:49;14.80;1.00
20231;DHT22;10274;49.022;9.338;2023-08-07T09:27:16;15.00;99.90
20231;DHT22;10274;49.022;9.338;2023-08-07T09:29:43;15.00;99.90
20231;DHT22;10274;49.022;9.338;2023-08-07T09:32:12;15.20;1.00
20231;DHT22;10274;49.022;9.338;2023-08-07T09:34:39;15.30;99.90
20231;DHT22;10274;49.022;9.338;2023-08-07T09:37:07;15.50;99.90
20231;DHT22;10274;49.022;9.338;2023-08-07T09:39:35;15.60;1.00
20231;DHT22;10274;49.022;9.338;2023-08-07T09:42:02;15.60;1.00
20231;DHT22;10274;49.022;9.338;2023-08-07T09:44:35;15.70;1.00
20231;DHT22;10274;49.022;9.338;2023-08-07T09:47:11;15.70;1.00
20231;DHT22;10274;49.022;9.338;2023-08-07T09:49:38;15.70;1.00
20231;DHT22;10274;49.022;9.338;2023-08-07T09:52:06;15.80;1.00
20231;DHT22;10274;49.022;9.338;2023-08-07T09:54:35;15.70;1.00
20231;DHT22;10274;49.022;9.338;2023-08-07T09:57:03;16.40;99.90
20231;DHT22;10274;49.022;9.338;2023-08-07T09:59:31;16.60;99.90
20231;DHT22;10274;49.022;9.338;2023-08-07T10:02:00;16.70;99.90
20231;DHT22;10274;49.022;9.338;2023-08-07T10:04:27;16.80;99.90
20231;DHT22;10274;49.022;9.338;2023-08-07T10:06:54;16.90;1.00
20231;DHT22;10274;49.022;9.338;2023-08-07T10:09:22;17.10;1.00
20231;DHT22;10274;49.022;9.338;2023-08-07T10:11:50;17.40;1.00
20231;DHT22;10274;49.022;9.338;2023-08-07T10:14:17;17.70;1.00
20231;DHT22;10274;49.022;9.338;2023-08-07T10:16:45;17.50;1.00
20231;DHT22;10274;49.022;9.338;2023-08-07T10:19:12;17.90;99.90
20231;DHT22;10274;49.022;9.338;2023-08-07T10:21:39;18.10;99.90
20231;DHT22;10274;49.022;9.338;2023-08-07T10:24:09;18.00;1.00
20231;DHT22;10274;49.022;9.338;2023-08-07T10:26:39;17.50;99.90
20231;DHT22;10274;49.022;9.338;2023-08-07T10:29:11;17.40;99.90
20231;DHT22;10274;49.022;9.338;2023-08-07T10:31:40;17.10;99.90
20231;DHT22;10274;49.022;9.338;2023-08-07T10:34:08;16.80;99.90
20231;DHT22;10274;49.022;9.338;2023-08-07T10:36:36;16.80;99.90
20231;DHT22;10274;49.022;9.338;2023-08-07T10:39:08;16.80;99.90
20231;DHT22;10274;49.022;9.338;2023-08-07T10:41:38;17.40;99.90
20231;DHT22;10274;49.022;9.338;2023-08-07T10:44:17;17.50;99.90
20231;DHT22;10274;49.022;9.338;2023-08-07T10:46:49;17.20;99.90
20231;DHT22;10274;49.022;9.338;2023-08-07T10:49:32;17.20;1.00
20231;DHT22;10274;49.022;9.338;2023-08-07T10:51:59;16.90;99.90
20231;DHT22;10274;49.022;9.338;2023-08-07T10:54:28;16.50;99.90
20231;DHT22;10274;49.022;9.338;2023-08-07T10:56:55;16.20;1.00
20231;DHT22;10274;49.022;9.338;2023-08-07T10:59:23;15.90;1.00
20231;DHT22;10274;49.022;9.338;2023-08-07T11:01:54;16.00;1.00
20231;DHT22;10274;49.022;9.338;2023-08-07T11:04:22;16.10;99.90
20231;DHT22;10274;49.022;9.338;2023-08-07T11:06:50;16.20;1.00
20231;DHT22;10274;49.022;9.338;2023-08-07T11:09:17;16.20;1.00
20231;DHT22;10274;49.022;9.338;2023-08-07T11:11:45;16.30;1.00
20231;DHT22;10274;49.022;9.338;2023-08-07T11:14:14;16.30;1.00
20231;DHT22;10274;49.022;9.338;2023-08-07T11:16:42;16.50;1.00
20231;DHT22;10274;49.022;9.338;2023-08-07T11:19:11;16.60;1.00
20231;DHT22;10274;49.022;9.338;2023-08-07T11:21:38;16.60;1.00
20231;DHT22;10274;49.022;9.338;2023-08-07T11:24:04;16.60;1.00
20231;DHT22;10274;49.022;9.338;2023-08-07T11:26:31;16.60;1.00
20231;DHT22;10274;49.022;9.338;2023-08-07T11:29:01;16.60;1.00
20231;DHT22;10274;49.022;9.338;2023-08-07T11:31:28;16.40;1.00
20231;DHT22;10274;49.022;9.338;2023-08-07T11:33:57;15.90;1.00
20231;DHT22;10274;49.022;9.338;2023-08-07T11:36:25;16.00;81.80
20231;DHT22;10274;49.022;9.338;2023-08-07T11:38:52;16.00;99.90
20231;DHT22;10274;49.022;9.338;2023-08-07T11:41:19;16.00;1.00
20231;DHT22;10274;49.022;9.338;2023-08-07T11:43:46;16.20;99.90
20231;DHT22;10274;49.022;9.338;2023-08-07T11:46:14;16.30;43.40
20231;DHT22;10274;49.022;9.338;2023-08-07T11:48:42;16.40;1.00
20231;DHT22;10274;49.022;9.338;2023-08-07T11:51:10;16.40;1.00
20231;DHT22;10274;49.022;9.338;2023-08-07T11:53:39;16.40;1.00
20231;DHT22;10274;49.022;9.338;2023-08-07T11:56:07;16.40;1.00
20231;DHT22;10274;49.022;9.338;2023-08-07T11:58:35;16.50;1.00
20231;DHT22;10274;49.022;9.338;2023-08-07T12:01:06;16.50;1.00
20231;DHT22;10274;49.022;9.338;2023-08-07T12:03:35;16.50;1.00
20231;DHT22;10274;49.022;9.338;2023-08-07T12:06:05;16.50;1.00
20231;DHT22;10274;49.022;9.338;2023-08-07T12:08:35;16.30;1.00
20231;DHT22;10274;49.022;9.338;2023-08-07T12:11:03;16.40;1.00
20231;DHT22;10274;49.022;9.338;2023-08-07T12:13:31;16.40;1.00
20231;DHT22;10274;49.022;9.338;2023-08-07T12:16:01;16.40;1.00
20231;DHT22;10274;49.022;9.338;2023-08-07T12:18:28;16.30;1.00
20231;DHT22;10274;49.022;9.338;2023-08-07T12:20:59;16.30;1.00
20231;DHT22;10274;49.022;9.338;2023-08-07T12:23:27;16.50;1.00
20231;DHT22;10274;49.022;9.338;2023-08-07T12:25:55;16.60;1.00
20231;DHT22;10274;49.022;9.338;2023-08-07T12:28:22;16.50;1.00
20231;DHT22;10274;49.022;9.338;2023-08-07T12:30:50;16.30;1.00
20231;DHT22;10274;49.022;9.338;2023-08-07T12:33:18;16.40;99.90
20231;DHT22;10274;49.022;9.338;2023-08-07T12:35:45;16.30;99.90
20231;DHT22;10274;49.022;9.338;2023-08-07T12:38:12;16.10;1.00
20231;DHT22;10274;49.022;9.338;2023-08-07T12:40:40;16.00;1.00
20231;DHT22;10274;49.022;9.338;2023-08-07T12:43:08;16.00;99.90
20231;DHT22;10274;49.022;9.338;2023-08-07T12:45:35;15.80;1.00
20231;DHT22;10274;49.022;9.338;2023-08-07T12:48:02;15.70;99.90
20231;DHT22;10274;49.022;9.338;2023-08-07T12:50:29;15.60;1.00
20231;DHT22;10274;49.022;9.338;2023-08-07T12:52:56;15.40;1.00
20231;DHT22;10274;49.022;9.338;2023-08-07T12:55:24;15.50;99.90
20231;DHT22;10274;49.022;9.338;2023-08-07T12:57:52;15.40;1.00
20231;DHT22;10274;49.022;9.338;2023-08-07T13:00:20;15.30;1.00
20231;DHT22;10274;49.022;9.338;2023-08-07T13:02:48;15.20;1.00
20231;DHT22;10274;49.022;9.338;2023-08-07T13:05:16;15.20;1.00
20231;DHT22;10274;49.022;9.338;2023-08-07T13:07:45;15.10;1.00
20231;DHT22;10274;49.022;9.338;2023-08-07T13:10:13;15.10;1.00
20231;DHT22;10274;49.022;9.338;2023-08-07T13:12:41;15.20;1.00
20231;DHT22;10274;49.022;9.338;2023-08-07T13:15:11;15.20;1.00
20231;DHT22;10274;49.022;9.338;2023-08-07T13:17:39;15.40;3.90
20231;DHT22;10274;49.022;9.338;2023-08-07T13:20:07;15.50;1.00
20231;DHT22;10274;49.022;9.338;2023-08-07T13:22:34;15.60;1.00
20231;DHT22;10274;49.022;9.338;2023-08-07T13:25:01;15.60;1.00
20231;DHT22;10274;49.022;9.338;2023-08-07T13:27:29;15.50;1.00
20231;DHT22;10274;49.022;9.338;2023-08-07T13:29:55;15.40;1.00
20231;DHT22;10274;49.022;9.338;2023-08-07T13:32:22;15.20;1.00
20231;DHT22;10274;49.022;9.338;2023-08-07T13:34:50;15.30;1.00
20231;DHT22;10274;49.022;9.338;2023-08-07T13:37:17;15.20;1.00
20231;DHT22;10274;49.022;9.338;2023-08-07T13:39:43;15.30;1.00
20231;DHT22;10274;49.022;9.338;2023-08-07T13:42:10;15.40;1.00
20231;DHT22;10274;49.022;9.338;2023-08-07T13:44:37;15.60;99.90
20231;DHT22;10274;49.022;9.338;2023-08-07T13:47:04;15.90;1.00
20231;DHT22;10274;49.022;9.338;2023-08-07T13:49:31;16.20;1.00
20231;DHT22;10274;49.022;9.338;2023-08-07T13:51:59;16.50;1.00
20231;DHT22;10274;49.022;9.338;2023-08-07T13:54:26;17.20;1.00
20231;DHT22;10274;49.022;9.338;2023-08-07T13:56:52;17.60;1.00
20231;DHT22;10274;49.022;9.338;2023-08-07T13:59:19;18.00;1.00
20231;DHT22;10274;49.022;9.338;2023-08-07T14:01:46;18.30;99.90
20231;DHT22;10274;49.022;9.338;2023-08-07T14:04:12;18.20;1.00
20231;DHT22;10274;49.022;9.338;2023-08-07T14:06:40;18.10;99.90
20231;DHT22;10274;49.022;9.338;2023-08-07T14:09:10;17.60;1.00
20231;DHT22;10274;49.022;9.338;2023-08-07T14:11:37;17.40;1.00
20231;DHT22;10274;49.022;9.338;2023-08-07T14:14:04;17.30;1.00
20231;DHT22;10274;49.022;9.338;2023-08-07T14:16:31;17.10;1.00
20231;DHT22;10274;49.022;9.338;2023-08-07T14:18:58;17.10;99.90
20231;DHT22;10274;49.022;9.338;2023-08-07T14:21:24;17.00;99.90
20231;DHT22;10274;49.022;9.338;2023-08-07T14:23:51;17.00;99.90
20231;DHT22;10274;49.022;9.338;2023-08-07T14:26:19;17.10;99.90
20231;DHT22;10274;49.022;9.338;2023-08-07T14:28:46;16.70;99.90
20231;DHT22;10274;49.022;9.338;2023-08-07T14:31:13;16.80;1.00
20231;DHT22;10274;49.022;9.338;2023-08-07T14:33:39;16.80;99.90
20231;DHT22;10274;49.022;9.338;2023-08-07T14:36:06;16.60;1.00
20231;DHT22;10274;49.022;9.338;2023-08-07T14:38:33;16.50;1.00
20231;DHT22;10274;49.022;9.338;2023-08-07T14:41:00;16.40;1.00
20231;DHT22;10274;49.022;9.338;2023-08-07T14:43:30;16.30;1.00
20231;DHT22;10274;49.022;9.338;2023-08-07T14:45:57;16.30;1.00
20231;DHT22;10274;49.022;9.338;2023-08-07T14:48:24;16.20;23.30
20231;DHT22;10274;49.022;9.338;2023-08-07T14:50:50;16.30;64.40
20231;DHT22;10274;49.022;9.338;2023-08-07T14:53:17;16.40;41.20
20231;DHT22;10274;49.022;9.338;2023-08-07T14:55:44;16.50;24.10
20231;DHT22;10274;49.022;9.338;2023-08-07T14:58:11;16.60;1.00
20231;DHT22;10274;49.022;9.338;2023-08-07T15:00:39;16.80;8.20
20231;DHT22;10274;49.022;9.338;2023-08-07T15:03:06;16.80;1.00
20231;DHT22;10274;49.022;9.338;2023-08-07T15:05:33;16.90;1.00
20231;DHT22;10274;49.022;9.338;2023-08-07T15:08:00;17.00;1.00
20231;DHT22;10274;49.022;9.338;2023-08-07T15:10:27;17.00;1.00
20231;DHT22;10274;49.022;9.338;2023-08-07T15:12:54;17.00;1.00
20231;DHT22;10274;49.022;9.338;2023-08-07T15:15:21;17.00;1.00
20231;DHT22;10274;49.022;9.338;2023-08-07T15:17:49;17.10;1.00
20231;DHT22;10274;49.022;9.338;2023-08-07T15:20:16;17.50;1.00
20231;DHT22;10274;49.022;9.338;2023-08-07T15:22:45;17.80;99.90
20231;DHT22;10274;49.022;9.338;2023-08-07T15:25:12;18.00;1.00
20231;DHT22;10274;49.022;9.338;2023-08-07T15:27:39;18.10;1.00
20231;DHT22;10274;49.022;9.338;2023-08-07T15:30:06;18.40;1.00
20231;DHT22;10274;49.022;9.338;2023-08-07T15:32:33;18.30;99.90
20231;DHT22;10274;49.022;9.338;2023-08-07T15:35:02;18.20;99.90
20231;DHT22;10274;49.022;9.338;2023-08-07T15:37:28;18.00;1.00
20231;DHT22;10274;49.022;9.338;2023-08-07T15:39:55;18.00;1.00
20231;DHT22;10274;49.022;9.338;2023-08-07T15:42:22;18.50;1.00
20231;DHT22;10274;49.022;9.338;2023-08-07T15:44:48;18.90;99.90
20231;DHT22;10274;49.022;9.338;2023-08-07T15:47:15;19.00;99.90